Time;durP1;ratioP1;P1;durP2;ratioP2;P2;SDS_P1;SDS_P2;PMS_P1;PMS_P2;Temp;Humidity;BMP_temperature;BMP_pressure;BME280_temperature;BME280_humidity;BME280_pressure;Samples;Min_cycle;Max_cycle;Signal;HPM_P1;HPM_P2
2021/01/26 00:00:52;;;;;;;3.80;3.22;;;1.30;99.90;;;;;;5086983;28;20425;-78
2021/01/26 00:03:18;;;;;;;4.38;3.10;;;3.90;99.90;;;;;;5087933;28;20398;-79
2021/01/26 00:05:44;;;;;;;3.72;3.17;;;1.50;99.90;;;;;;5070918;28;20410;-79
2021/01/26 00:08:10;;;;;;;3.97;2.92;;;2.20;99.90;;;;;;5070862;28;20781;-79
2021/01/26 00:10:36;;;;;;;3.22;2.50;;;1.50;99.90;;;;;;5087729;28;20374;-79
2021/01/26 00:13:03;;;;;;;4.20;3.25;;;1.50;99.90;;;;;;5053495;28;20409;-79
2021/01/26 00:15:28;;;;;;;3.55;2.60;;;1.50;99.90;;;;;;5089252;28;20393;-79
2021/01/26 00:17:55;;;;;;;4.27;3.17;;;1.30;99.90;;;;;;5093037;28;20688;-79
2021/01/26 00:20:21;;;;;;;3.50;2.97;;;3.10;99.90;;;;;;5092182;28;20377;-79
2021/01/26 00:22:48;;;;;;;3.20;2.90;;;3.10;99.90;;;;;;5093239;28;20382;-79
2021/01/26 00:25:20;;;;;;;4.72;3.10;;;3.30;99.90;;;;;;5093473;28;20726;-80
2021/01/26 00:27:46;;;;;;;4.40;3.05;;;1.70;99.90;;;;;;5093171;28;20454;-80
2021/01/26 00:30:19;;;;;;;4.30;3.53;;;1.30;99.90;;;;;;5093116;28;20652;-80
2021/01/26 00:32:45;;;;;;;4.25;3.00;;;-0.30;99.90;;;;;;5093194;28;20543;-79
2021/01/26 00:35:12;;;;;;;3.50;3.13;;;0.80;99.90;;;;;;5093376;28;20473;-80
2021/01/26 00:37:37;;;;;;;6.72;3.50;;;0.70;99.90;;;;;;5092754;28;20461;-79
2021/01/26 00:40:05;;;;;;;4.93;3.13;;;0.90;99.90;;;;;;5093350;28;20803;-79
2021/01/26 00:42:30;;;;;;;4.13;3.30;;;0.50;99.90;;;;;;5092092;28;20377;-79
2021/01/26 00:44:56;;;;;;;4.05;3.60;;;0.70;99.90;;;;;;5092614;28;20761;-79
2021/01/26 00:47:22;;;;;;;4.22;3.40;;;0.80;99.90;;;;;;5107493;28;20408;-79
2021/01/26 00:49:47;;;;;;;3.93;3.53;;;1.70;99.90;;;;;;5093106;28;20383;-79
2021/01/26 00:52:13;;;;;;;5.40;4.00;;;0.30;99.90;;;;;;5092902;28;20378;-79
2021/01/26 00:54:39;;;;;;;6.18;4.05;;;0.10;99.90;;;;;;5073305;28;21068;-78
2021/01/26 00:57:05;;;;;;;4.00;3.20;;;0.30;99.90;;;;;;5092148;28;20386;-79
2021/01/26 00:59:31;;;;;;;4.80;3.88;;;0.30;99.90;;;;;;5091315;28;20386;-79
2021/01/26 01:01:57;;;;;;;5.85;3.47;;;2.20;99.90;;;;;;5092588;28;20370;-78
2021/01/26 01:04:23;;;;;;;4.03;3.10;;;0.50;99.90;;;;;;5091369;28;20882;-78
2021/01/26 01:06:48;;;;;;;3.92;3.30;;;1.70;99.90;;;;;;5092096;28;20374;-78
2021/01/26 01:09:14;;;;;;;4.27;3.27;;;1.40;99.90;;;;;;5091946;28;20383;-78
2021/01/26 01:11:40;;;;;;;5.65;4.07;;;0.20;99.90;;;;;;5091709;28;20374;-78
2021/01/26 01:14:06;;;;;;;4.68;3.70;;;-0.10;99.90;;;;;;5092358;28;20861;-78
2021/01/26 01:16:31;;;;;;;4.45;3.85;;;0.10;99.90;;;;;;5091787;28;20382;-78
2021/01/26 01:18:57;;;;;;;3.77;3.37;;;0.40;99.90;;;;;;5092815;28;20382;-78
2021/01/26 01:21:22;;;;;;;4.70;3.70;;;0.00;99.90;;;;;;5091905;28;20691;-78
2021/01/26 01:23:48;;;;;;;4.10;3.30;;;0.30;99.90;;;;;;5092380;28;20382;-78
2021/01/26 01:26:14;;;;;;;4.28;3.50;;;1.40;99.90;;;;;;5092234;28;20371;-78
2021/01/26 01:28:39;;;;;;;6.13;3.83;;;-0.10;99.90;;;;;;5092144;28;20536;-78
2021/01/26 01:31:05;;;;;;;5.20;3.83;;;0.40;99.90;;;;;;5092667;28;20378;-78
2021/01/26 01:33:31;;;;;;;4.50;3.40;;;0.20;99.90;;;;;;5091385;28;20509;-78
2021/01/26 01:35:56;;;;;;;4.70;3.27;;;0.30;99.90;;;;;;5092529;28;20379;-78
2021/01/26 01:38:22;;;;;;;4.60;3.90;;;0.10;99.90;;;;;;5092271;28;20410;-78
2021/01/26 01:40:52;;;;;;;4.47;3.60;;;1.60;99.90;;;;;;5092346;28;20406;-78
2021/01/26 01:43:17;;;;;;;4.80;3.90;;;0.70;99.90;;;;;;5093048;28;20439;-80
2021/01/26 01:45:43;;;;;;;4.32;3.90;;;0.30;99.90;;;;;;5091818;28;21039;-78
2021/01/26 01:48:13;;;;;;;4.30;3.90;;;-0.60;99.90;;;;;;5092608;28;20466;-77
2021/01/26 01:50:44;;;;;;;4.47;4.07;;;0.00;99.90;;;;;;5091355;28;20935;-79
2021/01/26 01:53:25;;;;;;;4.88;3.45;;;0.60;99.90;;;;;;5092324;28;20406;-79
2021/01/26 01:56:02;;;;;;;4.25;3.75;;;-0.50;99.90;;;;;;5092905;28;20386;-79
2021/01/26 01:58:32;;;;;;;4.30;3.30;;;0.00;99.90;;;;;;5092064;28;20496;-79
2021/01/26 02:01:09;;;;;;;6.30;3.83;;;1.90;99.90;;;;;;5092469;28;20378;-79
2021/01/26 02:03:39;;;;;;;6.10;3.80;;;-0.10;99.90;;;;;;5091774;28;20402;-79
2021/01/26 02:06:05;;;;;;;4.72;3.75;;;-0.10;99.90;;;;;;5092221;28;20787;-79
2021/01/26 02:09:03;;;;;;;4.57;3.75;;;1.70;99.90;;;;;;5072856;28;20382;-79
2021/01/26 02:11:29;;;;;;;4.63;3.33;;;0.00;99.90;;;;;;5079924;28;20398;-79
2021/01/26 02:13:54;;;;;;;4.93;3.72;;;0.10;99.90;;;;;;5092108;28;20485;-79
2021/01/26 02:16:38;;;;;;;4.72;3.90;;;0.20;99.90;;;;;;5092162;28;20410;-79
2021/01/26 02:19:25;;;;;;;4.07;3.60;;;0.00;99.90;;;;;;5092416;28;20389;-79
2021/01/26 02:22:28;;;;;;;5.85;3.60;;;-0.10;99.90;;;;;;5091440;28;20386;-78
2021/01/26 02:25:36;;;;;;;5.93;4.28;;;0.50;99.90;;;;;;5091563;28;20504;-79
2021/01/26 02:28:17;;;;;;;4.60;3.92;;;0.00;99.90;;;;;;5091625;28;20389;-78
2021/01/26 02:31:08;;;;;;;4.32;3.85;;;0.50;99.90;;;;;;5106294;28;21098;-78
2021/01/26 02:34:13;;;;;;;4.63;3.67;;;0.20;99.90;;;;;;5090124;28;20426;-78
2021/01/26 02:36:44;;;;;;;5.95;4.15;;;0.70;99.90;;;;;;5090652;28;20388;-79
2021/01/26 02:39:33;;;;;;;4.53;4.10;;;0.10;99.90;;;;;;5090404;28;20394;-78
2021/01/26 02:42:08;;;;;;;4.47;3.78;;;0.20;99.90;;;;;;5091154;28;20463;-78
2021/01/26 02:44:54;;;;;;;5.15;3.88;;;0.30;99.90;;;;;;5106130;28;20686;-78
2021/01/26 02:47:31;;;;;;;4.97;4.00;;;0.80;99.90;;;;;;5049293;28;20390;-78
2021/01/26 02:50:18;;;;;;;4.60;3.90;;;0.00;99.90;;;;;;5091294;28;20873;-78
2021/01/26 02:53:12;;;;;;;4.63;3.67;;;0.30;99.90;;;;;;5090321;28;20390;-78
2021/01/26 02:56:04;;;;;;;4.95;3.90;;;0.30;99.90;;;;;;5090402;28;20386;-78
2021/01/26 02:58:38;;;;;;;4.35;3.72;;;0.40;99.90;;;;;;5084881;28;20390;-77
2021/01/26 03:01:05;;;;;;;5.78;3.53;;;0.50;99.90;;;;;;5091007;28;20382;-78
2021/01/26 03:03:40;;;;;;;4.07;3.30;;;0.50;99.90;;;;;;5089900;28;20488;-78
2021/01/26 03:06:07;;;;;;;4.75;4.10;;;0.00;99.90;;;;;;5090904;28;20382;-78
2021/01/26 03:08:42;;;;;;;4.32;3.42;;;0.40;99.90;;;;;;5072026;28;20539;-78
2021/01/26 03:11:19;;;;;;;4.80;3.60;;;0.10;99.90;;;;;;5090716;28;20397;-78
2021/01/26 03:13:55;;;;;;;4.88;3.97;;;0.30;99.90;;;;;;5090033;28;20406;-78
2021/01/26 03:16:24;;;;;;;4.20;3.40;;;0.10;99.90;;;;;;5090601;28;20393;-78
2021/01/26 03:18:59;;;;;;;5.18;3.72;;;0.40;99.90;;;;;;5089887;28;20378;-78
2021/01/26 03:21:27;;;;;;;4.55;3.67;;;0.80;99.90;;;;;;5090925;28;20366;-78
2021/01/26 03:24:08;;;;;;;3.50;3.20;;;0.70;99.90;;;;;;5090224;28;20469;-78
2021/01/26 03:26:35;;;;;;;3.67;3.10;;;1.20;99.90;;;;;;5089901;28;20370;-77
2021/01/26 03:29:05;;;;;;;3.93;2.80;;;1.40;99.90;;;;;;5090748;28;20382;-78
2021/01/26 03:31:42;;;;;;;3.17;2.60;;;1.20;99.90;;;;;;5089634;28;20374;-77
2021/01/26 03:34:08;;;;;;;2.65;2.30;;;1.30;99.90;;;;;;5072280;28;20449;-78
2021/01/26 03:36:34;;;;;;;3.50;2.50;;;4.00;99.90;;;;;;5089441;28;20444;-78
2021/01/26 03:39:00;;;;;;;2.25;2.05;;;1.40;99.90;;;;;;5072814;28;20473;-78
2021/01/26 03:41:27;;;;;;;2.70;2.10;;;;;;;;;;5072696;28;20473;-78
2021/01/26 03:43:52;;;;;;;2.20;1.80;;;2.00;99.90;;;;;;5090663;28;20374;-78
2021/01/26 03:46:21;;;;;;;2.05;1.85;;;1.60;99.90;;;;;;5090567;28;20455;-78
2021/01/26 03:48:56;;;;;;;3.90;2.30;;;1.50;99.90;;;;;;5089542;28;20497;-78
2021/01/26 03:51:25;;;;;;;2.50;2.30;;;3.40;99.90;;;;;;5076344;28;20831;-78
2021/01/26 03:53:53;;;;;;;3.35;2.60;;;3.00;99.90;;;;;;5093935;28;20406;-77
2021/01/26 03:56:43;;;;;;;4.03;3.45;;;1.40;99.90;;;;;;5094404;28;20382;-78
2021/01/26 03:59:43;;;;;;;3.22;2.45;;;1.80;99.90;;;;;;5094839;28;20382;-78
2021/01/26 04:02:17;;;;;;;3.55;2.47;;;1.50;99.90;;;;;;5093514;28;20385;-78
2021/01/26 04:05:11;;;;;;;3.10;2.60;;;2.90;99.90;;;;;;5093828;28;20370;-80
2021/01/26 04:07:48;;;;;;;3.35;2.45;;;1.00;99.90;;;;;;5109673;28;20810;-78
2021/01/26 04:10:22;;;;;;;3.03;2.40;;;3.00;99.90;;;;;;5094282;28;20877;-78
2021/01/26 04:12:52;;;;;;;2.90;2.70;;;1.50;99.90;;;;;;5093448;28;20459;-78
2021/01/26 04:15:24;;;;;;;5.18;2.80;;;3.70;99.90;;;;;;5094144;28;20488;-78
2021/01/26 04:17:52;;;;;;;2.60;2.40;;;2.60;99.90;;;;;;5093718;28;20374;-78
2021/01/26 04:20:22;;;;;;;3.33;2.33;;;1.00;99.90;;;;;;5076115;28;20897;-78
2021/01/26 04:22:56;;;;;;;4.40;2.80;;;1.30;99.90;;;;;;5093732;28;20849;-78
2021/01/26 04:25:22;;;;;;;3.95;3.20;;;1.40;99.90;;;;;;5076270;28;20390;-79
2021/01/26 04:27:48;;;;;;;3.08;2.78;;;1.40;99.90;;;;;;5093527;28;20411;-79
2021/01/26 04:30:15;;;;;;;3.22;2.45;;;1.10;99.90;;;;;;5094058;28;20482;-77
2021/01/26 04:32:40;;;;;;;3.20;2.85;;;1.30;99.90;;;;;;5093177;28;20789;-77
2021/01/26 04:35:06;;;;;;;4.03;2.67;;;4.50;99.90;;;;;;5093668;28;20417;-76
2021/01/26 04:37:32;;;;;;;2.95;2.40;;;1.30;99.90;;;;;;5093256;28;20378;-77
2021/01/26 04:39:58;;;;;;;3.60;2.73;;;1.30;99.90;;;;;;5093754;28;20374;-77
2021/01/26 04:42:27;;;;;;;5.37;3.40;;;2.00;99.90;;;;;;5093835;28;20362;-77
2021/01/26 04:45:02;;;;;;;3.40;3.00;;;1.20;99.90;;;;;;5093039;28;20438;-77
2021/01/26 04:47:55;;;;;;;4.80;2.95;;;1.70;99.90;;;;;;5093817;28;20381;-77
2021/01/26 04:50:51;;;;;;;4.40;2.97;;;1.50;99.90;;;;;;5093544;28;20382;-77
2021/01/26 04:53:49;;;;;;;3.45;2.78;;;1.30;99.90;;;;;;5109188;28;20406;-77
2021/01/26 04:56:26;;;;;;;3.03;2.67;;;1.80;99.90;;;;;;5093459;28;20378;-77
2021/01/26 04:58:54;;;;;;;4.10;3.13;;;2.80;99.90;;;;;;5093046;28;20378;-77
2021/01/26 05:01:54;;;;;;;5.32;3.63;;;1.40;99.90;;;;;;5092851;28;20465;-77
2021/01/26 05:04:27;;;;;;;4.13;2.90;;;1.40;99.90;;;;;;5094212;28;20749;-77
2021/01/26 05:07:01;;;;;;;4.82;2.78;;;3.80;99.90;;;;;;5074716;28;20418;-77
2021/01/26 05:09:35;;;;;;;3.45;2.85;;;1.70;99.90;;;;;;5093751;28;20425;-78
2021/01/26 05:12:05;;;;;;;3.28;2.67;;;1.30;99.90;;;;;;5093432;28;20426;-78
2021/01/26 05:14:35;;;;;;;4.07;3.25;;;1.70;99.90;;;;;;5093618;28;20501;-78
2021/01/26 05:17:16;;;;;;;3.72;2.70;;;2.10;99.90;;;;;;5093183;28;20380;-78
2021/01/26 05:19:46;;;;;;;3.65;3.15;;;1.50;99.90;;;;;;5092796;28;20370;-78
2021/01/26 05:22:24;;;;;;;3.85;2.53;;;2.90;99.90;;;;;;5093168;28;20385;-77
2021/01/26 05:25:04;;;;;;;3.60;2.63;;;1.70;99.90;;;;;;5092620;28;20420;-78
2021/01/26 05:27:30;;;;;;;4.07;3.10;;;1.90;99.90;;;;;;5087443;28;20464;-78
2021/01/26 05:30:01;;;;;;;5.63;2.90;;;2.40;99.90;;;;;;5090958;28;20385;-78
2021/01/26 05:32:29;;;;;;;3.92;2.70;;;3.10;99.90;;;;;;5073051;28;20398;-77
2021/01/26 05:34:55;;;;;;;3.80;2.42;;;2.00;99.90;;;;;;5086583;28;20429;-78
2021/01/26 05:37:22;;;;;;;4.03;2.97;;;1.80;99.90;;;;;;5072627;28;20386;-78
2021/01/26 05:40:02;;;;;;;4.18;2.78;;;3.60;99.90;;;;;;5089061;28;20383;-78
2021/01/26 05:42:29;;;;;;;4.45;3.05;;;2.30;99.90;;;;;;5071723;28;20712;-78
2021/01/26 05:45:01;;;;;;;3.33;2.70;;;2.50;99.90;;;;;;5086347;28;21026;-78
2021/01/26 05:47:37;;;;;;;3.57;2.60;;;2.90;99.90;;;;;;5071873;28;20386;-77
2021/01/26 05:50:04;;;;;;;5.93;3.20;;;3.60;99.90;;;;;;5090582;28;20386;-78
2021/01/26 05:52:39;;;;;;;3.33;2.80;;;1.70;99.90;;;;;;5072081;28;20754;-78
2021/01/26 05:55:25;;;;;;;4.25;2.83;;;1.70;99.90;;;;;;5107982;28;20406;-78
2021/01/26 05:57:52;;;;;;;4.28;2.80;;;3.60;99.90;;;;;;5091199;28;20378;-78
2021/01/26 06:00:28;;;;;;;3.87;2.80;;;1.50;99.90;;;;;;5091548;28;20435;-78
2021/01/26 06:03:20;;;;;;;4.30;2.60;;;3.30;99.90;;;;;;5090529;28;20390;-78
2021/01/26 06:06:09;;;;;;;3.97;3.00;;;1.70;99.90;;;;;;5078609;28;20380;-78
2021/01/26 06:08:57;;;;;;;4.07;3.20;;;1.70;99.90;;;;;;5070771;28;20376;-78
2021/01/26 06:11:29;;;;;;;3.45;2.90;;;1.60;99.90;;;;;;5071018;28;20466;-79
2021/01/26 06:14:27;;;;;;;5.30;3.50;;;3.70;99.90;;;;;;5069261;28;20457;-79
2021/01/26 06:17:10;;;;;;;5.53;3.20;;;4.20;99.90;;;;;;5047536;28;20449;-80
2021/01/26 06:19:36;;;;;;;3.70;2.90;;;1.90;99.90;;;;;;5077607;28;20387;-80
2021/01/26 06:22:02;;;;;;;3.65;2.53;;;3.80;99.90;;;;;;5079802;28;20394;-80
2021/01/26 06:24:29;;;;;;;3.70;2.50;;;4.10;99.90;;;;;;5080670;28;20844;-80
2021/01/26 06:27:19;;;;;;;4.25;2.58;;;3.30;99.90;;;;;;5076407;28;20740;-80
2021/01/26 06:30:03;;;;;;;4.18;3.00;;;1.70;99.90;;;;;;5078575;28;20467;-79
2021/01/26 06:32:31;;;;;;;3.45;2.30;;;1.70;99.90;;;;;;5072421;28;20411;-80
2021/01/26 06:35:13;;;;;;;3.50;2.65;;;2.40;99.90;;;;;;5071794;28;20585;-80
2021/01/26 06:38:22;;;;;;;3.42;2.70;;;1.70;99.90;;;;;;5071872;28;20387;-79
2021/01/26 06:41:08;;;;;;;2.93;2.10;;;3.80;99.90;;;;;;5070422;28;20751;-78
2021/01/26 06:43:54;;;;;;;4.85;3.20;;;1.80;99.90;;;;;;5091566;28;20443;-79
2021/01/26 06:46:20;;;;;;;2.90;2.17;;;1.80;99.90;;;;;;5090404;28;20382;-78
2021/01/26 06:49:04;;;;;;;3.20;2.33;;;3.00;99.90;;;;;;5091592;28;20462;-76
2021/01/26 06:52:05;;;;;;;5.15;3.30;;;1.70;99.90;;;;;;5070673;28;20878;-76
2021/01/26 06:55:15;;;;;;;3.58;2.78;;;1.80;99.90;;;;;;5086608;28;20970;-76
2021/01/26 06:57:56;;;;;;;4.95;2.63;;;1.80;99.90;;;;;;5070139;28;20395;-77
2021/01/26 07:00:50;;;;;;;5.20;3.20;;;1.80;99.90;;;;;;5070993;28;20436;-76
2021/01/26 07:03:42;;;;;;;5.43;3.47;;;1.70;99.90;;;;;;5066270;28;20411;-76
2021/01/26 07:06:13;;;;;;;4.70;3.50;;;3.50;99.90;;;;;;5086469;28;20488;-77
2021/01/26 07:08:59;;;;;;;6.15;3.70;;;1.40;99.90;;;;;;5071225;28;20388;-76
2021/01/26 07:11:51;;;;;;;4.30;3.78;;;1.60;99.90;;;;;;5052826;28;20750;-77
2021/01/26 07:14:55;;;;;;;3.88;3.40;;;1.70;99.90;;;;;;5070757;28;20458;-77
2021/01/26 07:17:59;;;;;;;6.15;3.45;;;1.60;99.90;;;;;;5070795;28;20383;-77
2021/01/26 07:20:27;;;;;;;4.95;3.45;;;1.60;99.90;;;;;;5070967;28;20740;-76
2021/01/26 07:23:14;;;;;;;6.60;4.27;;;1.70;99.90;;;;;;5069761;28;20905;-77
2021/01/26 07:25:55;;;;;;;4.97;4.00;;;1.70;99.90;;;;;;5070546;28;20388;-76
2021/01/26 07:28:26;;;;;;;7.20;3.90;;;1.50;99.90;;;;;;5070693;28;20391;-76
2021/01/26 07:31:17;;;;;;;8.93;4.20;;;1.40;99.90;;;;;;5070033;28;20384;-77
2021/01/26 07:33:58;;;;;;;7.23;3.77;;;1.30;99.90;;;;;;5069796;28;20432;-77
2021/01/26 07:36:36;;;;;;;6.35;3.92;;;1.50;99.90;;;;;;5052041;28;20704;-76
2021/01/26 07:39:30;;;;;;;8.32;4.10;;;1.50;99.90;;;;;;5069687;28;20577;-77
2021/01/26 07:42:14;;;;;;;6.55;3.80;;;1.40;99.90;;;;;;5069729;28;20856;-76
2021/01/26 07:44:52;;;;;;;5.22;4.20;;;1.70;99.90;;;;;;5070853;28;20387;-77
2021/01/26 07:47:35;;;;;;;7.35;4.18;;;1.30;99.90;;;;;;5072381;28;20388;-77
2021/01/26 07:50:25;;;;;;;7.35;4.20;;;3.70;99.90;;;;;;5090430;28;20382;-76
2021/01/26 07:52:58;;;;;;;5.68;4.30;;;1.60;99.90;;;;;;5089810;28;20866;-77
2021/01/26 07:55:35;;;;;;;6.05;4.50;;;1.80;99.90;;;;;;5091595;28;20446;-78
2021/01/26 07:58:13;;;;;;;5.75;4.18;;;1.90;99.90;;;;;;5072368;28;20398;-77
2021/01/26 08:00:49;;;;;;;6.82;4.88;;;3.30;99.90;;;;;;5091453;28;20855;-77
2021/01/26 08:03:21;;;;;;;8.55;4.60;;;1.70;99.90;;;;;;5091265;28;20448;-77
2021/01/26 08:05:50;;;;;;;5.43;4.15;;;1.60;99.90;;;;;;5090509;28;20379;-78
2021/01/26 08:08:33;;;;;;;6.03;4.07;;;3.10;99.90;;;;;;5092488;28;20378;-77
2021/01/26 08:11:21;;;;;;;5.13;4.63;;;2.00;99.90;;;;;;5090274;28;20381;-76
2021/01/26 08:13:53;;;;;;;6.93;4.40;;;1.90;99.90;;;;;;5071881;28;20433;-77
2021/01/26 08:16:34;;;;;;;7.05;3.92;;;1.90;99.90;;;;;;5072851;28;20382;-77
2021/01/26 08:19:05;;;;;;;6.45;5.00;;;1.90;99.90;;;;;;5090235;28;20370;-77
2021/01/26 08:21:37;;;;;;;8.18;4.40;;;1.80;99.90;;;;;;5090933;28;20382;-77
2021/01/26 08:24:12;;;;;;;5.10;3.60;;;1.80;99.90;;;;;;5089897;28;20901;-77
2021/01/26 08:26:39;;;;;;;5.70;4.18;;;1.90;99.90;;;;;;5106294;28;20792;-76
2021/01/26 08:29:05;;;;;;;5.37;3.80;;;3.70;99.90;;;;;;5089493;28;21098;-77
2021/01/26 08:31:34;;;;;;;5.15;3.90;;;1.90;99.90;;;;;;5090688;28;20461;-77
2021/01/26 08:34:22;;;;;;;4.70;3.90;;;1.80;99.90;;;;;;5089279;28;20426;-77
2021/01/26 08:37:24;;;;;;;5.45;3.35;;;1.50;99.90;;;;;;5090999;28;20386;-79
2021/01/26 08:39:51;;;;;;;3.92;3.03;;;1.90;99.90;;;;;;5050157;28;20446;-78
2021/01/26 08:42:41;;;;;;;6.30;4.30;;;1.80;99.90;;;;;;5094466;28;20464;-75
2021/01/26 08:45:24;;;;;;;5.60;3.13;;;2.20;99.90;;;;;;5093183;28;20394;-75
2021/01/26 08:48:00;;;;;;;4.97;3.60;;;2.20;99.90;;;;;;5093602;28;20383;-76
2021/01/26 08:50:27;;;;;;;3.83;3.30;;;2.30;99.90;;;;;;5094000;28;20874;-76
2021/01/26 08:53:12;;;;;;;4.65;2.95;;;3.20;99.90;;;;;;5093371;28;20386;-78
2021/01/26 08:55:43;;;;;;;5.20;2.97;;;2.90;99.90;;;;;;5093881;28;20841;-75
2021/01/26 08:58:12;;;;;;;3.58;2.90;;;2.10;99.90;;;;;;5093052;28;21035;-76
2021/01/26 09:00:47;;;;;;;5.63;3.17;;;2.40;99.90;;;;;;5093584;28;20797;-76
2021/01/26 09:03:29;;;;;;;4.40;2.70;;;2.10;99.90;;;;;;5093684;28;20447;-77
2021/01/26 09:05:57;;;;;;;3.90;2.60;;;1.90;99.90;;;;;;5070267;28;20406;-78
2021/01/26 09:08:41;;;;;;;3.90;3.08;;;0.40;99.90;;;;;;5079842;28;20401;-78
2021/01/26 09:11:30;;;;;;;3.80;3.10;;;2.20;99.90;;;;;;5083675;28;20393;-78
2021/01/26 09:14:04;;;;;;;3.80;2.80;;;2.40;99.90;;;;;;5081963;28;20440;-79
2021/01/26 09:16:31;;;;;;;3.65;2.80;;;3.10;99.90;;;;;;5081987;28;20382;-78
2021/01/26 09:19:17;;;;;;;3.95;2.85;;;3.40;99.90;;;;;;5080994;28;20389;-78
2021/01/26 09:21:43;;;;;;;3.77;2.73;;;2.60;99.90;;;;;;5082560;28;20418;-79
2021/01/26 09:24:10;;;;;;;4.70;2.83;;;3.20;99.90;;;;;;5081876;28;20474;-77
2021/01/26 09:26:36;;;;;;;3.28;2.50;;;3.30;99.90;;;;;;5081051;28;20458;-78
2021/01/26 09:29:02;;;;;;;3.78;2.90;;;3.00;99.90;;;;;;5081338;28;20438;-78
2021/01/26 09:31:30;;;;;;;5.25;3.05;;;2.90;99.90;;;;;;5082323;28;20382;-79
2021/01/26 09:34:05;;;;;;;3.25;2.53;;;2.90;99.90;;;;;;5081236;28;20515;-80
2021/01/26 09:36:34;;;;;;;4.47;2.42;;;2.70;99.90;;;;;;5079387;28;20390;-77
2021/01/26 09:39:09;;;;;;;4.07;3.25;;;2.70;99.90;;;;;;5078911;28;20390;-78
2021/01/26 09:41:36;;;;;;;3.67;2.85;;;2.70;99.90;;;;;;5080387;28;20386;-79
2021/01/26 09:44:10;;;;;;;3.90;2.90;;;2.70;99.90;;;;;;5082742;28;20374;-79
2021/01/26 09:46:40;;;;;;;4.70;2.90;;;2.70;99.90;;;;;;5081785;28;20866;-79
2021/01/26 09:49:18;;;;;;;4.50;2.80;;;3.70;99.90;;;;;;5079149;28;20883;-79
2021/01/26 09:51:46;;;;;;;4.10;3.40;;;3.20;99.90;;;;;;5080857;28;20477;-79
2021/01/26 09:54:27;;;;;;;4.10;2.53;;;4.10;99.90;;;;;;5082101;28;20910;-79
2021/01/26 09:56:54;;;;;;;4.78;3.30;;;;;;;;;;5080504;28;20429;-79
2021/01/26 09:59:20;;;;;;;3.10;2.78;;;3.10;99.90;;;;;;5081800;28;20479;-78
2021/01/26 10:01:47;;;;;;;3.35;2.47;;;3.30;99.90;;;;;;5081737;28;21288;-78
2021/01/26 10:04:15;;;;;;;3.40;2.50;;;3.70;99.90;;;;;;5063330;28;20921;-79
2021/01/26 10:06:42;;;;;;;3.22;2.13;;;3.50;99.90;;;;;;5078705;28;20398;-79
2021/01/26 10:09:22;;;;;;;3.25;2.00;;;3.50;99.90;;;;;;5077594;28;20390;-79
2021/01/26 10:11:48;;;;;;;5.70;2.30;;;3.30;99.90;;;;;;5080203;28;20481;-79
2021/01/26 10:14:24;;;;;;;2.60;2.40;;;3.90;99.90;;;;;;5081241;28;20406;-79
2021/01/26 10:16:52;;;;;;;4.20;2.80;;;3.70;99.90;;;;;;5079249;28;20485;-79
2021/01/26 10:19:33;;;;;;;3.13;2.30;;;4.20;99.90;;;;;;5080198;28;20543;-78
2021/01/26 10:22:13;;;;;;;3.42;2.13;;;3.70;99.90;;;;;;5081088;28;20378;-77
2021/01/26 10:24:40;;;;;;;3.63;2.10;;;4.40;99.90;;;;;;5082450;28;20626;-79
2021/01/26 10:27:12;;;;;;;2.97;2.10;;;3.70;99.90;;;;;;5078968;28;20842;-78
2021/01/26 10:29:43;;;;;;;2.97;1.95;;;5.10;99.90;;;;;;5080486;28;20394;-77
2021/01/26 10:32:11;;;;;;;4.32;2.63;;;4.00;99.90;;;;;;5080892;28;20386;-78
2021/01/26 10:34:40;;;;;;;2.95;2.10;;;4.20;99.90;;;;;;5081584;28;20437;-77
2021/01/26 10:37:24;;;;;;;3.80;2.80;;;3.60;99.90;;;;;;5076963;28;20402;-79
2021/01/26 10:40:14;;;;;;;4.45;1.90;;;3.20;99.90;;;;;;5079016;28;20378;-78
2021/01/26 10:42:44;;;;;;;5.77;2.30;;;3.60;99.90;;;;;;5075495;28;20399;-78
2021/01/26 10:45:11;;;;;;;3.80;2.47;;;4.60;99.90;;;;;;5060062;28;20472;-78
2021/01/26 10:47:40;;;;;;;3.75;2.00;;;5.30;99.90;;;;;;5075454;28;20394;-78
2021/01/26 10:50:27;;;;;;;3.20;2.40;;;4.50;99.90;;;;;;5078371;28;20415;-78
2021/01/26 10:52:53;;;;;;;3.80;2.37;;;3.60;99.90;;;;;;5078928;28;20543;-77
2021/01/26 10:55:22;;;;;;;3.80;1.95;;;4.10;99.90;;;;;;5082790;28;20524;-77
2021/01/26 10:57:49;;;;;;;1.90;1.70;;;4.10;99.90;;;;;;5079416;28;20906;-77
2021/01/26 11:00:26;;;;;;;2.72;2.03;;;4.40;99.10;;;;;;5079181;28;20386;-77
2021/01/26 11:02:53;;;;;;;3.85;2.38;;;4.30;98.70;;;;;;5079083;28;20499;-77
2021/01/26 11:05:23;;;;;;;4.30;2.40;;;4.20;99.30;;;;;;5081406;28;20480;-77
2021/01/26 11:07:49;;;;;;;2.33;2.08;;;5.00;99.20;;;;;;5079110;28;20370;-78
2021/01/26 11:10:16;;;;;;;2.75;2.05;;;4.50;98.70;;;;;;5078353;28;20378;-76
2021/01/26 11:12:42;;;;;;;3.65;2.50;;;4.00;99.50;;;;;;5078410;28;20410;-77
2021/01/26 11:15:17;;;;;;;3.45;2.20;;;3.90;99.90;;;;;;5080484;28;20525;-77
2021/01/26 11:17:43;;;;;;;6.00;2.50;;;3.90;99.90;;;;;;5060319;28;20405;-79
2021/01/26 11:20:10;;;;;;;5.70;2.60;;;5.70;99.90;;;;;;5079090;28;20386;-76
2021/01/26 11:22:36;;;;;;;4.85;2.58;;;3.60;99.90;;;;;;5081174;28;20427;-77
2021/01/26 11:25:06;;;;;;;4.47;2.50;;;3.80;99.90;;;;;;5080369;28;20882;-77
2021/01/26 11:27:31;;;;;;;4.75;2.65;;;3.80;99.90;;;;;;5076371;28;20397;-76
2021/01/26 11:29:57;;;;;;;2.80;2.50;;;4.30;99.90;;;;;;5081011;28;20464;-76
2021/01/26 11:32:23;;;;;;;4.00;2.70;;;4.60;99.90;;;;;;5080835;28;20746;-76
2021/01/26 11:34:49;;;;;;;4.95;2.85;;;4.30;98.20;;;;;;5078814;28;20518;-77
2021/01/26 11:37:15;;;;;;;3.17;2.60;;;4.50;98.50;;;;;;5077658;28;20382;-77
2021/01/26 11:39:40;;;;;;;4.15;2.30;;;5.60;99.90;;;;;;5081220;28;20382;-76
2021/01/26 11:42:07;;;;;;;3.63;3.00;;;4.40;99.60;;;;;;5078296;28;20901;-76
2021/01/26 11:44:34;;;;;;;4.28;3.00;;;4.20;98.40;;;;;;5080009;28;20390;-77
2021/01/26 11:47:00;;;;;;;4.97;2.80;;;4.00;98.60;;;;;;5075098;28;20493;-79
2021/01/26 11:49:26;;;;;;;4.40;3.00;;;4.70;99.40;;;;;;5078875;28;20373;-77
2021/01/26 11:51:52;;;;;;;3.97;2.53;;;4.40;98.70;;;;;;5061748;28;20406;-76
2021/01/26 11:54:17;;;;;;;4.03;2.90;;;5.10;97.30;;;;;;5080322;28;20407;-77
2021/01/26 11:56:43;;;;;;;5.67;3.87;;;7.10;99.90;;;;;;5059500;28;20618;-77
2021/01/26 11:59:09;;;;;;;4.00;3.10;;;7.30;97.40;;;;;;5078977;28;20422;-79
2021/01/26 12:01:35;;;;;;;3.95;2.92;;;5.40;95.80;;;;;;5080729;28;20836;-79
2021/01/26 12:04:00;;;;;;;6.95;3.00;;;6.20;98.10;;;;;;5079584;28;21196;-78
2021/01/26 12:06:26;;;;;;;4.90;3.13;;;6.00;99.90;;;;;;5077357;28;20827;-79
2021/01/26 12:08:52;;;;;;;4.97;3.37;;;5.00;98.70;;;;;;5080811;28;20472;-76
2021/01/26 12:11:17;;;;;;;3.90;2.90;;;6.60;99.00;;;;;;5068599;28;20386;-78
2021/01/26 12:13:43;;;;;;;4.27;3.20;;;3.80;99.90;;;;;;5070267;28;20969;-79
2021/01/26 12:16:10;;;;;;;4.82;3.00;;;4.30;99.90;;;;;;5067351;28;20557;-77
2021/01/26 12:18:36;;;;;;;3.85;3.08;;;3.90;99.90;;;;;;5069996;28;20378;-76
2021/01/26 12:21:03;;;;;;;3.80;2.65;;;3.90;99.90;;;;;;5068575;28;20396;-77
2021/01/26 12:23:28;;;;;;;4.70;3.30;;;4.20;99.90;;;;;;5073157;28;20876;-76
2021/01/26 12:25:57;;;;;;;4.68;2.90;;;5.20;99.90;;;;;;5070631;28;20389;-76
2021/01/26 12:28:23;;;;;;;3.95;2.70;;;4.80;99.90;;;;;;5050002;28;20386;-76
2021/01/26 12:30:49;;;;;;;3.90;2.92;;;5.00;99.90;;;;;;5073171;28;20385;-78
2021/01/26 12:33:15;;;;;;;3.33;2.58;;;4.30;99.60;;;;;;5054027;28;20425;-78
2021/01/26 12:35:41;;;;;;;3.35;2.55;;;4.50;99.90;;;;;;5068458;28;20781;-76
2021/01/26 12:38:08;;;;;;;5.53;3.00;;;4.60;99.50;;;;;;5070425;28;20473;-78
2021/01/26 12:40:37;;;;;;;3.70;2.60;;;4.70;99.80;;;;;;5071530;28;20377;-77
2021/01/26 12:43:03;;;;;;;5.63;3.05;;;4.80;99.90;;;;;;5069510;28;20493;-78
2021/01/26 12:45:30;;;;;;;7.43;2.95;;;4.40;99.80;;;;;;5069402;28;20396;-76
2021/01/26 12:47:56;;;;;;;3.97;2.90;;;4.70;99.90;;;;;;5070659;28;20374;-77
2021/01/26 12:50:25;;;;;;;3.65;2.53;;;5.90;99.90;;;;;;5069540;28;20374;-77
2021/01/26 12:52:52;;;;;;;5.00;2.20;;;5.30;99.60;;;;;;5071844;28;20394;-78
2021/01/26 12:55:18;;;;;;;3.85;2.50;;;6.20;99.90;;;;;;5053874;28;21083;-76
2021/01/26 12:57:44;;;;;;;3.80;3.00;;;5.00;99.90;;;;;;5051093;28;20437;-80
2021/01/26 13:00:14;;;;;;;5.50;2.83;;;4.50;98.80;;;;;;5070807;28;20461;-80
2021/01/26 13:02:40;;;;;;;6.50;2.78;;;4.30;99.90;;;;;;5073330;28;20478;-78
2021/01/26 13:05:07;;;;;;;4.50;2.50;;;6.20;99.90;;;;;;5072038;28;20509;-78
2021/01/26 13:07:33;;;;;;;3.35;2.67;;;4.40;99.90;;;;;;5069106;28;20628;-78
2021/01/26 13:09:59;;;;;;;3.55;2.92;;;4.40;99.30;;;;;;5072248;28;20382;-80
2021/01/26 13:12:25;;;;;;;4.25;2.75;;;5.50;99.00;;;;;;5072966;28;20382;-78
2021/01/26 13:14:51;;;;;;;6.47;2.83;;;5.20;99.50;;;;;;5073408;28;20429;-80
2021/01/26 13:17:16;;;;;;;3.80;3.40;;;4.40;99.30;;;;;;5074723;28;21835;-77
2021/01/26 13:19:42;;;;;;;4.35;3.30;;;4.60;99.30;;;;;;5074631;28;20389;-78
2021/01/26 13:22:08;;;;;;;5.63;2.50;;;5.20;99.90;;;;;;5075388;28;20390;-78
2021/01/26 13:24:37;;;;;;;3.00;2.70;;;4.90;99.40;;;;;;5077971;28;20442;-78
2021/01/26 13:27:03;;;;;;;3.38;2.20;;;4.50;99.90;;;;;;5074869;28;20426;-79
2021/01/26 13:29:28;;;;;;;4.18;2.30;;;2.80;98.20;;;;;;5073951;28;20978;-76